Terminal Aerodrome Forecast
Issued by NWS

Home | Current Version | Previous Version | Text Only | Print | Product List | Glossary On
Versions: 1 2 3 4 5 6 7 8 9 10 11 12 13 14 15 16 17 18 19
000
FTUS43 KBIS 260700 AAA
TAFDIK
TAF AMD
KDIK 260728Z 2607/2706 32010KT P6SM OVC011
     FM261000 32006KT P6SM SCT015 BKN035
      TEMPO 2610/2614 BKN025
     FM261400 30008KT P6SM SCT030 BKN200
     FM270000 22006KT P6SM SCT015 BKN050=

USA.gov is the U.S. government's official web portal to all federal, state and local government web resources and services.